Time;durP1;ratioP1;P1;durP2;ratioP2;P2;SDS_P1;SDS_P2;PMS_P1;PMS_P2;Temp;Humidity;BMP_temperature;BMP_pressure;BME280_temperature;BME280_humidity;BME280_pressure;Samples;Min_cycle;Max_cycle;Signal;HPM_P1;HPM_P2
2022/01/10 00:01:06;;;;;;;;;;;;;;;-144.99;100.00;52668.22;4928081;28;19930;-62
2022/01/10 00:03:34;;;;;;;;;;;;;;;-144.99;100.00;52668.22;4927082;28;19999;-62
2022/01/10 00:06:01;;;;;;;;;;;;;;;-144.99;100.00;52690.66;4927738;28;19946;-62
2022/01/10 00:08:27;;;;;;;;;;;;;;;-144.99;100.00;52641.72;4927853;28;19927;-61
2022/01/10 00:10:53;;;;;;;;;;;;;;;-144.99;100.00;52651.94;4927850;28;20096;-61
2022/01/10 00:13:20;;;;;;;;;;;;;;;-144.99;100.00;52684.53;4927381;28;19931;-62
2022/01/10 00:15:46;;;;;;;;;;;;;;;-144.99;100.00;52672.31;4927680;28;19941;-58
2022/01/10 00:18:13;;;;;;;;;;;;;;;-144.99;100.00;52704.94;4927928;28;20291;-62
2022/01/10 00:20:40;;;;;;;;;;;;;;;-144.99;100.00;52690.66;4927052;28;20372;-61
2022/01/10 00:23:08;;;;;;;;;;;;;;;-144.99;100.00;52696.78;4928568;28;19931;-61
2022/01/10 00:25:34;;;;;;;;;;;;;;;-144.99;100.00;52700.84;4927092;28;19939;-62
2022/01/10 00:28:00;;;;;;;;;;;;;;;-144.99;100.00;52684.53;4585615;28;10000000;-61
2022/01/10 00:30:27;;;;;;;;;;;;;;;-144.99;100.00;52682.50;4923596;28;19937;-63
2022/01/10 00:32:54;;;;;;;;;;;;;;;-144.99;100.00;52664.16;4928235;28;20462;-62
2022/01/10 00:35:20;;;;;;;;;;;;;;;-144.99;100.00;52704.94;4925287;29;19931;-63
2022/01/10 00:37:49;;;;;;;;;;;;;;;-144.99;100.00;52637.66;4927377;28;20396;-63
2022/01/10 00:40:16;;;;;;;;;;;;;;;-144.99;100.00;52664.16;4928450;29;20179;-63
2022/01/10 00:42:43;;;;;;;;;;;;;;;-144.99;100.00;52709.00;4929111;28;19935;-62
2022/01/10 00:45:17;;;;;;;;;;;;;;;-144.99;100.00;52676.38;4940391;28;19970;-61
2022/01/10 00:47:45;;;;;;;;;;;;;;;-144.99;100.00;52696.78;4929976;28;19942;-61
2022/01/10 00:50:12;;;;;;;;;;;;;;;-144.99;100.00;52674.34;4929231;28;19927;-61
2022/01/10 00:52:38;;;;;;;;;;;;;;;-144.99;100.00;52664.16;4930379;28;19926;-59
2022/01/10 00:55:07;;;;;;;;;;;;;;;-144.99;100.00;52660.09;4933240;28;19937;-61
2022/01/10 00:57:33;;;;;;;;;;;;;;;-144.99;100.00;52643.78;4925146;28;19926;-61
2022/01/10 01:00:00;;;;;;;;;;;;;;;-144.99;100.00;52717.16;4929539;28;19937;-56
2022/01/10 01:02:31;;;;;;;;;;;;;;;-144.99;100.00;52684.53;4930562;29;19927;-60
2022/01/10 01:04:58;;;;;;;;;;;;;;;-144.99;100.00;52656.00;4929545;28;19990;-59
2022/01/10 01:07:24;;;;;;;;;;;;;;;-144.99;100.00;52672.31;4930110;28;19927;-57
2022/01/10 01:10:02;;;;;;;;;;;;;;;-144.99;100.00;52688.63;4929195;28;19931;-61
2022/01/10 01:12:40;;;;;;;;;;;;;;;-144.99;100.00;52668.22;4930037;28;19978;-60
2022/01/10 01:15:18;;;;;;;;;;;;;;;-144.99;100.00;52682.50;4934348;28;19996;-61
2022/01/10 01:17:58;;;;;;;;;;;;;;;-144.99;100.00;52643.78;4930429;29;19958;-60
2022/01/10 01:20:43;;;;;;;;;;;;;;;-144.99;100.00;52656.00;4929540;28;19927;-63
2022/01/10 01:25:55;;;;;;;;;;;;;;;-144.99;100.00;52668.22;4933117;29;20339;-63
2022/01/10 01:28:23;;;;;;;;;;;;;;;-144.99;100.00;52662.13;4930082;28;19926;-61
2022/01/10 01:30:49;;;;;;;;;;;;;;;-144.99;100.00;52635.63;4929720;28;19933;-63
2022/01/10 01:33:17;;;;;;;;;;;;;;;-144.99;100.00;52684.53;4929618;28;20009;-62
2022/01/10 01:35:43;;;;;;;;;;;;;;;-144.99;100.00;52676.38;4934038;28;20237;-63
2022/01/10 01:38:09;;;;;;;;;;;;;;;-144.99;100.00;52629.50;4935978;29;19938;-63
2022/01/10 01:40:42;;;;;;;;;;;;;;;-144.99;100.00;52684.53;4929338;28;20376;-59
2022/01/10 01:43:09;;;;;;;;;;;;;;;-144.99;100.00;52660.09;4929822;28;19926;-61
2022/01/10 01:45:37;;;;;;;;;;;;;;;-144.99;100.00;52684.53;4930759;28;19931;-60
2022/01/10 01:48:04;;;;;;;;;;;;;;;-144.99;100.00;52643.78;4938247;29;19927;-60
2022/01/10 01:50:31;;;;;;;;;;;;;;;-144.99;100.00;52680.47;4929112;28;19931;-61
2022/01/10 01:52:57;;;;;;;;;;;;;;;-144.99;100.00;52684.53;4929384;29;19930;-61
2022/01/10 01:55:24;;;;;;;;;;;;;;;-144.99;100.00;52692.69;4924983;28;19946;-60
2022/01/10 01:57:50;;;;;;;;;;;;;;;-144.99;100.00;52686.59;4931902;29;19938;-60
2022/01/10 02:00:19;;;;;;;;;;;;;;;-144.99;100.00;52692.69;4929023;28;19933;-61
2022/01/10 02:02:47;;;;;;;;;;;;;;;-144.99;100.00;52700.84;4940683;28;19965;-61
2022/01/10 02:05:14;;;;;;;;;;;;;;;-144.99;100.00;52713.09;4929761;29;19934;-60
2022/01/10 02:07:40;;;;;;;;;;;;;;;-144.99;100.00;52635.63;4930296;28;19949;-62
2022/01/10 02:10:07;;;;;;;;;;;;;;;-144.99;100.00;52700.84;4928432;28;19927;-60
2022/01/10 02:12:33;;;;;;;;;;;;;;;-144.99;100.00;52645.81;4928955;28;20391;-60
2022/01/10 02:14:59;;;;;;;;;;;;;;;-144.99;100.00;52668.22;4928537;28;20136;-61
2022/01/10 02:17:35;;;;;;;;;;;;;;;-144.99;100.00;52684.53;4935574;28;19930;-60
2022/01/10 02:20:04;;;;;;;;;;;;;;;-144.99;100.00;52680.47;4928384;28;19937;-62
2022/01/10 02:22:30;;;;;;;;;;;;;;;-144.99;100.00;52682.50;4929664;28;19931;-60
2022/01/10 02:24:57;;;;;;;;;;;;;;;-144.99;100.00;52664.16;4927963;28;20432;-61
2022/01/10 02:27:24;;;;;;;;;;;;;;;-144.99;100.00;52680.47;4932457;28;19927;-58
2022/01/10 02:29:50;;;;;;;;;;;;;;;-144.99;100.00;52643.78;4937130;29;19937;-61
2022/01/10 02:32:17;;;;;;;;;;;;;;;-144.99;100.00;52688.63;4928393;28;20304;-58
2022/01/10 02:34:43;;;;;;;;;;;;;;;-144.99;100.00;52680.47;4928462;28;19927;-62
2022/01/10 02:37:11;;;;;;;;;;;;;;;-144.99;100.00;52647.84;4928963;28;19931;-62
2022/01/10 02:39:37;;;;;;;;;;;;;;;-144.99;100.00;52656.00;4936323;29;20296;-62
2022/01/10 02:42:04;;;;;;;;;;;;;;;-144.99;100.00;52696.78;4928520;28;19977;-60
2022/01/10 02:44:30;;;;;;;;;;;;;;;-144.99;100.00;52664.16;4928389;28;19935;-61
2022/01/10 02:46:57;;;;;;;;;;;;;;;-144.99;100.00;52688.63;4942205;22;19949;-60
2022/01/10 02:49:24;;;;;;;;;;;;;;;-144.99;100.00;52651.94;4925511;28;19935;-59
2022/01/10 02:51:51;;;;;;;;;;;;;;;-144.99;100.00;52664.16;4948222;29;19938;-59
2022/01/10 02:54:19;;;;;;;;;;;;;;;-144.99;100.00;52627.47;4949754;28;19930;-59
2022/01/10 02:56:46;;;;;;;;;;;;;;;-144.99;100.00;52668.22;4937568;28;19933;-58
2022/01/10 02:59:12;;;;;;;;;;;;;;;-144.99;100.00;52676.38;4942666;28;20471;-58
2022/01/10 03:01:39;;;;;;;;;;;;;;;-144.99;100.00;52680.47;4950609;28;19946;-59
2022/01/10 03:04:05;;;;;;;;;;;;;;;-144.99;100.00;52656.00;4949921;28;19949;-59
2022/01/10 03:06:32;;;;;;;;;;;;;;;-144.99;100.00;52656.00;4949858;28;19954;-59
2022/01/10 03:09:04;;;;;;;;;;;;;;;-144.99;100.00;52684.53;4947488;28;19950;-60
2022/01/10 03:11:32;;;;;;;;;;;;;;;-144.99;100.00;52676.38;4937729;29;19942;-59
2022/01/10 03:13:58;;;;;;;;;;;;;;;-144.99;100.00;52668.22;4936606;29;19927;-59
2022/01/10 03:16:25;;;;;;;;;;;;;;;-144.99;100.00;52631.53;4949383;28;20399;-59
2022/01/10 03:18:51;;;;;;;;;;;;;;;-144.99;100.00;52678.44;4943123;28;19926;-59
2022/01/10 03:21:20;;;;;;;;;;;;;;;-144.99;100.00;52668.22;4948805;28;19949;-58
2022/01/10 03:23:47;;;;;;;;;;;;;;;-144.99;100.00;52615.25;4938661;28;20017;-59
2022/01/10 03:26:13;;;;;;;;;;;;;;;-144.99;100.00;52680.47;4948730;28;19927;-59
2022/01/10 03:28:41;;;;;;;;;;;;;;;-144.99;100.00;52660.09;4949518;28;19930;-60
2022/01/10 03:31:07;;;;;;;;;;;;;;;-144.99;100.00;52651.94;4940688;28;19930;-59
2022/01/10 03:33:33;;;;;;;;;;;;;;;-144.99;100.00;52678.44;4943908;28;20169;-61
2022/01/10 03:36:00;;;;;;;;;;;;;;;-144.99;100.00;52637.66;4949015;28;19933;-61
2022/01/10 03:38:26;;;;;;;;;;;;;;;-144.99;100.00;52639.69;4948970;28;20402;-60
2022/01/10 03:40:53;;;;;;;;;;;;;;;-144.99;100.00;52662.13;4943316;28;19927;-61
2022/01/10 03:43:19;;;;;;;;;;;;;;;-144.99;100.00;52607.09;4948419;29;19926;-59
2022/01/10 03:45:47;;;;;;;;;;;;;;;-144.99;100.00;52656.00;4952836;28;20196;-59
2022/01/10 03:48:13;;;;;;;;;;;;;;;-144.99;100.00;52653.97;4951852;28;20417;-60
2022/01/10 03:50:39;;;;;;;;;;;;;;;-144.99;100.00;52647.84;4950947;28;19953;-61
2022/01/10 03:53:06;;;;;;;;;;;;;;;-144.99;100.00;52656.00;4939588;28;19950;-59
2022/01/10 03:55:32;;;;;;;;;;;;;;;-144.99;100.00;52676.38;4941289;28;19937;-60
2022/01/10 03:57:59;;;;;;;;;;;;;;;-144.99;100.00;52664.16;4947245;29;19930;-59
2022/01/10 04:00:25;;;;;;;;;;;;;;;-144.99;100.00;52635.63;4932695;28;19931;-60
2022/01/10 04:02:58;;;;;;;;;;;;;;;-144.99;100.00;52686.59;4945314;28;19926;-59
2022/01/10 04:05:24;;;;;;;;;;;;;;;-144.99;100.00;52684.53;4951488;28;20405;-59
2022/01/10 04:07:50;;;;;;;;;;;;;;;-144.99;100.00;52684.53;4951851;28;20323;-58
2022/01/10 04:10:17;;;;;;;;;;;;;;;-144.99;100.00;52704.94;4951636;28;19927;-60
2022/01/10 04:12:43;;;;;;;;;;;;;;;-144.99;100.00;52676.38;4938451;28;19933;-60
2022/01/10 04:15:10;;;;;;;;;;;;;;;-144.99;100.00;52684.53;4951765;28;19938;-60
2022/01/10 04:17:36;;;;;;;;;;;;;;;-144.99;100.00;52639.69;4948900;28;19934;-60
2022/01/10 04:20:04;;;;;;;;;;;;;;;-144.99;100.00;52668.22;4945284;28;20399;-61
2022/01/10 04:22:31;;;;;;;;;;;;;;;-144.99;100.00;52676.38;4942437;29;20094;-60
2022/01/10 04:24:57;;;;;;;;;;;;;;;-144.99;100.00;52658.03;4938965;29;20045;-62
2022/01/10 04:27:24;;;;;;;;;;;;;;;-144.99;100.00;52651.94;4946072;29;19933;-60
2022/01/10 04:29:50;;;;;;;;;;;;;;;-144.99;100.00;52698.81;4947537;28;19962;-60
2022/01/10 04:32:17;;;;;;;;;;;;;;;-144.99;100.00;52704.94;4944651;28;19927;-60
2022/01/10 04:34:44;;;;;;;;;;;;;;;-144.99;100.00;52709.00;4943483;29;20233;-61
2022/01/10 04:37:12;;;;;;;;;;;;;;;-144.99;100.00;52709.00;4951330;28;19926;-60
2022/01/10 04:39:38;;;;;;;;;;;;;;;-144.99;100.00;52658.03;4940130;28;19927;-59
2022/01/10 04:42:05;;;;;;;;;;;;;;;-144.99;100.00;52688.63;4949940;29;19933;-61
2022/01/10 04:44:31;;;;;;;;;;;;;;;-144.99;100.00;52674.34;4940080;29;19930;-62
2022/01/10 04:46:57;;;;;;;;;;;;;;;-144.99;100.00;52704.94;4951894;29;20017;-61
2022/01/10 04:49:26;;;;;;;;;;;;;;;-144.99;100.00;52668.22;4951397;28;19937;-61
2022/01/10 04:51:53;;;;;;;;;;;;;;;-144.99;100.00;52647.84;4950864;28;19927;-61
2022/01/10 04:54:21;;;;;;;;;;;;;;;-144.99;100.00;52680.47;4945829;28;20080;-62
2022/01/10 04:56:47;;;;;;;;;;;;;;;-144.99;100.00;52664.16;4930662;28;19927;-62
2022/01/10 04:59:14;;;;;;;;;;;;;;;-144.99;100.00;52658.03;4948440;28;20002;-62
2022/01/10 05:01:40;;;;;;;;;;;;;;;-144.99;100.00;52684.53;4940244;29;19926;-61
2022/01/10 05:04:07;;;;;;;;;;;;;;;-144.99;100.00;52651.94;4939788;28;19937;-60
2022/01/10 05:06:34;;;;;;;;;;;;;;;-144.99;100.00;52678.44;4952473;28;20326;-60
2022/01/10 05:09:00;;;;;;;;;;;;;;;-144.99;100.00;52678.44;4952173;28;19934;-59
2022/01/10 05:11:28;;;;;;;;;;;;;;;-144.99;100.00;52656.00;4951507;28;19976;-59
2022/01/10 05:13:54;;;;;;;;;;;;;;;-144.99;100.00;52696.78;4945793;28;20119;-59
2022/01/10 05:16:21;;;;;;;;;;;;;;;-144.99;100.00;52666.19;4940925;28;20010;-60
2022/01/10 05:18:47;;;;;;;;;;;;;;;-144.99;100.00;52700.84;4946870;28;19933;-59
2022/01/10 05:21:16;;;;;;;;;;;;;;;-144.99;100.00;52684.53;4937194;29;19966;-60
2022/01/10 05:23:42;;;;;;;;;;;;;;;-144.99;100.00;52700.84;4934915;29;20397;-60
2022/01/10 05:26:09;;;;;;;;;;;;;;;-144.99;100.00;52698.81;4935769;29;19938;-60
2022/01/10 05:28:36;;;;;;;;;;;;;;;-144.99;100.00;52688.63;4938292;28;19950;-60
2022/01/10 05:31:03;;;;;;;;;;;;;;;-144.99;100.00;52664.16;4944538;28;19933;-59
2022/01/10 05:33:29;;;;;;;;;;;;;;;-144.99;100.00;52700.84;4950401;28;19926;-61
2022/01/10 05:35:56;;;;;;;;;;;;;;;-144.99;100.00;52700.84;4949229;28;19927;-60
2022/01/10 05:38:22;;;;;;;;;;;;;;;-144.99;100.00;52662.13;4949780;28;19926;-60
2022/01/10 05:40:48;;;;;;;;;;;;;;;-144.99;100.00;52700.84;4950241;28;19938;-59
2022/01/10 05:43:15;;;;;;;;;;;;;;;-144.99;100.00;52656.00;4950396;28;19934;-60
2022/01/10 05:45:44;;;;;;;;;;;;;;;-144.99;100.00;52692.69;4942217;28;20158;-60
2022/01/10 05:48:13;;;;;;;;;;;;;;;-144.99;100.00;52651.94;4946249;28;19930;-58
2022/01/10 05:50:42;;;;;;;;;;;;;;;-144.99;100.00;52658.03;4949937;28;19972;-59
2022/01/10 05:53:09;;;;;;;;;;;;;;;-144.99;100.00;52658.03;4949980;28;20368;-60
2022/01/10 05:55:37;;;;;;;;;;;;;;;-144.99;100.00;52656.00;4938198;28;19927;-61
2022/01/10 05:58:03;;;;;;;;;;;;;;;-144.99;100.00;52700.84;4948761;29;19935;-59
2022/01/10 06:00:30;;;;;;;;;;;;;;;-144.99;100.00;52676.38;4935693;28;19934;-60
2022/01/10 06:02:58;;;;;;;;;;;;;;;-144.99;100.00;52678.44;4947371;28;19937;-63
2022/01/10 06:05:30;;;;;;;;;;;;;;;-144.99;100.00;52700.84;4946483;28;19926;-64
2022/01/10 06:07:56;;;;;;;;;;;;;;;-144.99;100.00;52696.78;4936089;28;19934;-63
2022/01/10 06:10:23;;;;;;;;;;;;;;;-144.99;100.00;52641.72;4949788;28;19926;-61
2022/01/10 06:12:49;;;;;;;;;;;;;;;-144.99;100.00;52706.97;4944741;28;19926;-61
2022/01/10 06:15:16;;;;;;;;;;;;;;;-144.99;100.00;52721.22;4942302;29;19933;-62
2022/01/10 06:17:42;;;;;;;;;;;;;;;-144.99;100.00;52656.00;4932153;28;19927;-59
2022/01/10 06:20:10;;;;;;;;;;;;;;;-144.99;100.00;52717.16;4937823;28;19927;-58
2022/01/10 06:22:37;;;;;;;;;;;;;;;-144.99;100.00;52647.84;4933688;29;19985;-58
2022/01/10 06:25:04;;;;;;;;;;;;;;;-144.99;100.00;52676.38;4937215;29;19939;-59
2022/01/10 06:27:30;;;;;;;;;;;;;;;-144.99;100.00;52668.22;4937120;29;20398;-59
2022/01/10 06:29:56;;;;;;;;;;;;;;;-144.99;100.00;52676.38;4936765;28;19942;-58
2022/01/10 06:32:23;;;;;;;;;;;;;;;-144.99;100.00;52680.47;4948365;28;19926;-58
2022/01/10 06:34:50;;;;;;;;;;;;;;;-144.99;100.00;52688.63;4948350;28;19926;-58
2022/01/10 06:37:18;;;;;;;;;;;;;;;-144.99;100.00;52680.47;4943888;28;20017;-58
2022/01/10 06:39:45;;;;;;;;;;;;;;;-144.99;100.00;52700.84;4941140;29;19927;-60
2022/01/10 06:42:11;;;;;;;;;;;;;;;-144.99;100.00;52668.22;4936436;28;19926;-58
2022/01/10 06:44:38;;;;;;;;;;;;;;;-144.99;100.00;52664.16;4949167;28;19927;-62
2022/01/10 06:47:04;;;;;;;;;;;;;;;-144.99;100.00;52639.69;4948950;28;20017;-61
2022/01/10 06:49:31;;;;;;;;;;;;;;;-144.99;100.00;52651.94;4943484;28;19973;-60
2022/01/10 06:51:57;;;;;;;;;;;;;;;-144.99;100.00;52706.97;4923887;28;20002;-59
2022/01/10 06:54:25;;;;;;;;;;;;;;;-144.99;100.00;52672.31;4948858;28;19930;-61
2022/01/10 06:56:52;;;;;;;;;;;;;;;-144.99;100.00;52700.84;4942789;28;19988;-60
2022/01/10 06:59:18;;;;;;;;;;;;;;;-144.99;100.00;52676.38;4945063;28;19935;-59
2022/01/10 07:01:45;;;;;;;;;;;;;;;-144.99;100.00;52656.00;4936910;28;19934;-61
2022/01/10 07:04:12;;;;;;;;;;;;;;;-144.99;100.00;52676.38;4936434;28;19930;-60
2022/01/10 07:06:40;;;;;;;;;;;;;;;-144.99;100.00;52700.84;4949416;28;20021;-61
2022/01/10 07:09:07;;;;;;;;;;;;;;;-144.99;100.00;52688.63;4948843;28;20017;-58
2022/01/10 07:11:34;;;;;;;;;;;;;;;-144.99;100.00;52682.50;4939995;28;19931;-58
2022/01/10 07:14:01;;;;;;;;;;;;;;;-144.99;100.00;52709.00;4945674;28;19933;-59
2022/01/10 07:16:27;;;;;;;;;;;;;;;-144.99;100.00;52670.28;4952188;28;19930;-58
2022/01/10 07:18:54;;;;;;;;;;;;;;;-144.99;100.00;52688.63;4946926;28;19931;-59
2022/01/10 07:21:21;;;;;;;;;;;;;;;-144.99;100.00;52656.00;4944929;29;20017;-60
2022/01/10 07:23:48;;;;;;;;;;;;;;;-144.99;100.00;52664.16;4939956;28;19927;-59
2022/01/10 07:26:14;;;;;;;;;;;;;;;-144.99;100.00;52709.00;4937205;29;19926;-59
2022/01/10 07:28:42;;;;;;;;;;;;;;;-144.99;100.00;52694.72;4952082;28;20327;-59
2022/01/10 07:31:08;;;;;;;;;;;;;;;-144.99;100.00;52680.47;4944779;28;20315;-59
2022/01/10 07:33:36;;;;;;;;;;;;;;;-144.99;100.00;52676.38;4939526;28;19933;-58
2022/01/10 07:36:02;;;;;;;;;;;;;;;-144.99;100.00;52684.53;4952028;28;19972;-59
2022/01/10 07:38:35;;;;;;;;;;;;;;;-144.99;100.00;52684.53;4949603;28;19927;-61
2022/01/10 07:41:01;;;;;;;;;;;;;;;-144.99;100.00;52680.47;4941769;29;20077;-59
2022/01/10 07:43:27;;;;;;;;;;;;;;;-144.99;100.00;52664.16;4938764;28;20529;-60
2022/01/10 07:45:55;;;;;;;;;;;;;;;-144.99;100.00;52676.38;4951947;28;19931;-61
2022/01/10 07:48:22;;;;;;;;;;;;;;;-144.99;100.00;52660.09;4952254;28;20291;-60
2022/01/10 07:50:48;;;;;;;;;;;;;;;-144.99;100.00;52684.53;4951573;28;19930;-60
2022/01/10 07:53:14;;;;;;;;;;;;;;;-144.99;100.00;52676.38;4946893;28;19949;-59
2022/01/10 07:55:41;;;;;;;;;;;;;;;-144.99;100.00;52704.94;4936119;29;20260;-59
2022/01/10 07:58:07;;;;;;;;;;;;;;;-144.99;100.00;52706.97;4940427;28;19953;-60
2022/01/10 08:00:33;;;;;;;;;;;;;;;-144.99;100.00;52662.13;4947055;29;20345;-60
2022/01/10 08:03:01;;;;;;;;;;;;;;;-144.99;100.00;52717.16;4946568;28;19927;-64
2022/01/10 08:05:27;;;;;;;;;;;;;;;-144.99;100.00;52725.31;4943650;29;19926;-65
2022/01/10 08:07:54;;;;;;;;;;;;;;;-144.99;100.00;52733.47;4951914;28;20048;-61
2022/01/10 08:10:20;;;;;;;;;;;;;;;-144.99;100.00;52662.13;4951382;28;19926;-61
2022/01/10 08:12:46;;;;;;;;;;;;;;;-144.99;100.00;52664.16;4949222;28;20296;-62
2022/01/10 08:15:13;;;;;;;;;;;;;;;-144.99;100.00;52680.47;4940305;28;19927;-62
2022/01/10 08:17:40;;;;;;;;;;;;;;;-144.99;100.00;52656.00;4947877;29;20013;-62
2022/01/10 08:20:09;;;;;;;;;;;;;;;-144.99;100.00;52692.69;4946106;28;19931;-61
2022/01/10 08:22:35;;;;;;;;;;;;;;;-144.99;100.00;52696.78;4935843;29;20033;-60
2022/01/10 08:25:02;;;;;;;;;;;;;;;-144.99;100.00;52692.69;4931743;28;19927;-61
2022/01/10 08:27:28;;;;;;;;;;;;;;;-144.99;100.00;52643.78;4945526;29;19930;-61
2022/01/10 08:29:55;;;;;;;;;;;;;;;-144.99;100.00;52651.94;4939167;28;20080;-61
2022/01/10 08:32:21;;;;;;;;;;;;;;;-144.99;100.00;52653.97;4949722;28;19926;-61
2022/01/10 08:34:47;;;;;;;;;;;;;;;-144.99;100.00;52688.63;4938940;28;20494;-70
2022/01/10 08:37:15;;;;;;;;;;;;;;;-144.99;100.00;52643.78;4950328;28;20409;-69
2022/01/10 08:39:42;;;;;;;;;;;;;;;-144.99;100.00;52709.00;4939388;28;20391;-67
2022/01/10 08:42:08;;;;;;;;;;;;;;;-144.99;100.00;52680.47;4950002;29;19933;-67
2022/01/10 08:44:34;;;;;;;;;;;;;;;-144.99;100.00;52686.59;4938851;28;19938;-66
2022/01/10 08:47:01;;;;;;;;;;;;;;;-144.99;100.00;52656.00;4949817;28;20372;-68
2022/01/10 08:49:28;;;;;;;;;;;;;;;-144.99;100.00;52676.38;4951058;28;19927;-67
2022/01/10 08:51:57;;;;;;;;;;;;;;;-144.99;100.00;52668.22;4950991;28;20288;-67
2022/01/10 08:54:25;;;;;;;;;;;;;;;-144.99;100.00;52676.38;4948221;28;19927;-66
2022/01/10 08:56:52;;;;;;;;;;;;;;;-144.99;100.00;52651.94;4940366;28;19927;-68
2022/01/10 08:59:18;;;;;;;;;;;;;;;-144.99;100.00;52727.34;4942310;28;19927;-66
2022/01/10 09:01:46;;;;;;;;;;;;;;;-144.99;100.00;52668.22;4950784;28;19933;-66
2022/01/10 09:04:15;;;;;;;;;;;;;;;-144.99;100.00;52647.84;4948307;28;19938;-66
2022/01/10 09:06:42;;;;;;;;;;;;;;;-144.99;100.00;52635.63;4935044;29;19927;-65
2022/01/10 09:09:08;;;;;;;;;;;;;;;-144.99;100.00;52635.63;4943902;28;19933;-66
2022/01/10 09:11:36;;;;;;;;;;;;;;;-144.99;100.00;52645.81;5007709;28;20032;-66
2022/01/10 09:14:03;;;;;;;;;;;;;;;-144.99;100.00;52651.94;4947847;28;20021;-66
2022/01/10 09:16:31;;;;;;;;;;;;;;;-144.99;100.00;52680.47;4944757;28;19934;-66
2022/01/10 09:18:57;;;;;;;;;;;;;;;-144.99;100.00;52688.63;4940374;28;20272;-66
2022/01/10 09:21:24;;;;;;;;;;;;;;;-144.99;100.00;52651.94;4936827;28;20335;-65
2022/01/10 09:23:50;;;;;;;;;;;;;;;-144.99;100.00;52711.03;4932391;28;20375;-65
2022/01/10 09:26:17;;;;;;;;;;;;;;;-144.99;100.00;52664.16;4936138;29;20312;-65
2022/01/10 09:28:47;;;;;;;;;;;;;;;-144.99;100.00;52684.53;4955744;28;20402;-66
2022/01/10 09:31:14;;;;;;;;;;;;;;;-144.99;100.00;52690.66;4946091;28;19927;-65
2022/01/10 09:33:41;;;;;;;;;;;;;;;-144.99;100.00;52651.94;4944412;28;19927;-68
2022/01/10 09:36:08;;;;;;;;;;;;;;;-144.99;100.00;52651.94;4942837;28;20294;-66
2022/01/10 09:38:34;;;;;;;;;;;;;;;-144.99;100.00;52649.88;4949971;28;19927;-68
2022/01/10 09:41:01;;;;;;;;;;;;;;;-144.99;100.00;52670.28;4937956;28;19926;-68
2022/01/10 09:43:27;;;;;;;;;;;;;;;-144.99;100.00;52643.78;4939019;29;19945;-66
2022/01/10 09:45:56;;;;;;;;;;;;;;;-144.99;100.00;52635.63;4950143;28;19930;-67
2022/01/10 09:48:23;;;;;;;;;;;;;;;-144.99;100.00;52664.16;4925027;29;20363;-68
2022/01/10 09:50:49;;;;;;;;;;;;;;;-144.99;100.00;52670.28;4949861;28;19926;-66
2022/01/10 09:53:17;;;;;;;;;;;;;;;-144.99;100.00;52607.09;4950255;28;20307;-67
2022/01/10 09:55:46;;;;;;;;;;;;;;;-144.99;100.00;52643.78;4937261;28;20392;-69
2022/01/10 09:58:13;;;;;;;;;;;;;;;-144.99;100.00;52676.38;4946036;28;19927;-66
2022/01/10 10:00:40;;;;;;;;;;;;;;;-144.99;100.00;52676.38;4931980;29;20291;-67
2022/01/10 10:03:08;;;;;;;;;;;;;;;-144.99;100.00;52668.22;4941256;28;19927;-69
2022/01/10 10:05:34;;;;;;;;;;;;;;;-144.99;100.00;52676.38;4944965;29;19926;-68
2022/01/10 10:08:01;;;;;;;;;;;;;;;-144.99;100.00;52668.22;4950045;28;19934;-66
2022/01/10 10:10:29;;;;;;;;;;;;;;;-144.99;100.00;52672.31;4933847;28;20384;-67
2022/01/10 10:12:55;;;;;;;;;;;;;;;-144.99;100.00;52668.22;4938114;29;19998;-67
2022/01/10 10:15:27;;;;;;;;;;;;;;;-144.99;100.00;52686.59;4942739;28;19945;-69
2022/01/10 10:17:53;;;;;;;;;;;;;;;-144.99;100.00;52639.69;4947807;28;20346;-68
2022/01/10 10:20:22;;;;;;;;;;;;;;;-144.99;100.00;52664.16;4938781;28;19926;-68
2022/01/10 10:22:50;;;;;;;;;;;;;;;-144.99;100.00;52615.25;4946613;28;19934;-67
2022/01/10 10:25:17;;;;;;;;;;;;;;;-144.99;100.00;52643.78;4929777;29;19957;-70
2022/01/10 10:27:45;;;;;;;;;;;;;;;-144.99;100.00;52698.81;4938805;29;19926;-66
2022/01/10 10:30:13;;;;;;;;;;;;;;;-144.99;100.00;52643.78;4934069;28;20264;-67
2022/01/10 10:32:39;;;;;;;;;;;;;;;-144.99;100.00;52639.69;4947263;28;20221;-66
2022/01/10 10:35:07;;;;;;;;;;;;;;;-144.99;100.00;52619.31;4949517;28;19953;-69
2022/01/10 10:37:37;;;;;;;;;;;;;;;-144.99;98.42;52656.00;4949921;28;19926;-67
2022/01/10 10:40:05;;;;;;;;;;;;;;;-144.99;98.17;52647.84;4949162;28;20180;-67
2022/01/10 10:42:33;;;;;;;;;;;;;;;-144.99;97.50;52660.09;4949661;28;19988;-67
2022/01/10 10:45:02;;;;;;;;;;;;;;;-144.99;96.60;52651.94;4937172;28;19938;-67
2022/01/10 10:47:29;;;;;;;;;;;;;;;-144.99;98.39;52635.63;4936566;29;19980;-68
2022/01/10 10:49:58;;;;;;;;;;;;;;;-144.99;99.31;52698.81;4951588;28;19931;-68
2022/01/10 10:52:30;;;;;;;;;;;;;;;-144.99;99.37;52680.47;4952434;28;19963;-67
2022/01/10 10:55:01;;;;;;;;;;;;;;;-144.99;99.57;52631.53;4938271;28;19971;-68
2022/01/10 10:57:27;;;;;;;;;;;;;;;-144.99;99.15;52651.94;4947173;28;19945;-68
2022/01/10 10:59:54;;;;;;;;;;;;;;;-144.99;99.44;52672.31;4952662;28;20410;-67
2022/01/10 11:02:21;;;;;;;;;;;;;;;-144.99;99.64;52653.97;4944848;28;19926;-67
2022/01/10 11:04:47;;;;;;;;;;;;;;;-144.99;98.41;52643.78;4947800;29;19977;-67
2022/01/10 11:07:16;;;;;;;;;;;;;;;-144.99;97.91;52643.78;4942473;29;19927;-68
2022/01/10 11:09:43;;;;;;;;;;;;;;;-144.99;96.74;52656.00;4948348;28;20316;-69
2022/01/10 11:12:13;;;;;;;;;;;;;;;-144.99;96.22;52660.09;4943261;29;20006;-68
2022/01/10 11:14:41;;;;;;;;;;;;;;;-144.99;96.49;52656.00;4942162;28;19926;-67
2022/01/10 11:17:07;;;;;;;;;;;;;;;-144.99;96.75;52664.16;4949293;28;19931;-68
2022/01/10 11:19:34;;;;;;;;;;;;;;;-144.99;96.36;52660.09;4951612;28;19972;-69
2022/01/10 11:22:03;;;;;;;;;;;;;;;-144.99;96.42;52656.00;4952181;28;20288;-68
2022/01/10 11:24:51;;;;;;;;;;;;;;;-144.99;95.78;52635.63;4940406;28;19934;-66
2022/01/10 11:27:30;;;;;;;;;;;;;;;-144.99;96.29;52651.94;4941658;28;19958;-67
2022/01/10 11:29:57;;;;;;;;;;;;;;;-144.99;95.56;52621.34;4924876;28;19931;-67
2022/01/10 11:32:49;;;;;;;;;;;;;;;-144.99;95.71;52656.00;4945748;28;19926;-68
2022/01/10 11:35:16;;;;;;;;;;;;;;;-144.99;95.08;52651.94;4943570;29;20422;-69
2022/01/10 11:37:42;;;;;;;;;;;;;;;-144.99;95.73;52625.44;4947017;28;20046;-67
2022/01/10 11:40:10;;;;;;;;;;;;;;;-144.99;96.22;52643.78;4944248;28;19933;-67
2022/01/10 11:42:43;;;;;;;;;;;;;;;-144.99;96.23;52656.00;4951843;28;20391;-68
2022/01/10 11:45:10;;;;;;;;;;;;;;;-144.99;96.75;52635.63;4952326;28;19930;-68
2022/01/10 11:48:11;;;;;;;;;;;;;;;-144.99;97.76;52651.94;4951949;28;20292;-69
2022/01/10 11:50:41;;;;;;;;;;;;;;;-144.99;98.31;52656.00;4946813;28;19970;-68
2022/01/10 11:53:08;;;;;;;;;;;;;;;-144.99;97.94;52660.09;4944803;29;19974;-68
2022/01/10 11:55:39;;;;;;;;;;;;;;;-144.99;97.57;52649.88;4928385;28;19939;-69
2022/01/10 11:58:14;;;;;;;;;;;;;;;-144.99;98.17;52660.09;4932102;29;20422;-68
2022/01/10 12:00:40;;;;;;;;;;;;;;;-144.99;97.18;52672.31;4947842;28;19968;-71
2022/01/10 12:03:07;;;;;;;;;;;;;;;-144.99;96.99;52664.16;4951210;28;19926;-69
2022/01/10 12:05:33;;;;;;;;;;;;;;;-144.99;97.34;52664.16;4942906;28;20406;-69
2022/01/10 12:08:03;;;;;;;;;;;;;;;-144.99;97.35;52668.22;4945890;28;20307;-69
2022/01/10 12:10:30;;;;;;;;;;;;;;;-144.99;97.03;52680.47;4941613;28;20413;-67
2022/01/10 12:13:01;;;;;;;;;;;;;;;-144.99;96.87;52664.16;4938169;29;20113;-67
2022/01/10 12:15:31;;;;;;;;;;;;;;;-144.99;97.21;52692.69;4945939;28;19931;-68
2022/01/10 12:17:58;;;;;;;;;;;;;;;-144.99;97.07;52660.09;4936599;28;20350;-67
2022/01/10 12:20:24;;;;;;;;;;;;;;;-144.99;96.73;52631.53;4950046;28;19934;-67
2022/01/10 12:22:52;;;;;;;;;;;;;;;-144.99;96.50;52696.78;4948505;28;19950;-68